createdAt,value
2022-07-25T00:05:14.058Z,23.11
2022-07-25T00:15:19.585Z,23.14
2022-07-25T00:25:27.539Z,23.14
2022-07-25T00:35:33.594Z,23.11
2022-07-25T00:45:41.380Z,22.68
2022-07-25T00:55:47.027Z,22.62
2022-07-25T01:05:54.991Z,22.82
2022-07-25T01:16:01.517Z,22.20
2022-07-25T01:26:09.576Z,22.55
2022-07-25T01:36:15.200Z,22.55
2022-07-25T01:46:22.899Z,22.43
2022-07-25T01:56:28.642Z,22.37
2022-07-25T02:06:39.623Z,22.06
2022-07-25T02:16:45.527Z,22.06
2022-07-25T02:26:53.521Z,21.88
2022-07-25T02:36:59.441Z,21.88
2022-07-25T02:47:07.150Z,21.76
2022-07-25T02:57:13.123Z,21.76
2022-07-25T03:07:19.353Z,21.81
2022-07-25T03:17:25.054Z,21.88
2022-07-25T03:27:32.947Z,21.88
2022-07-25T03:37:38.694Z,21.57
2022-07-25T03:47:46.720Z,21.75
2022-07-25T03:57:52.386Z,21.75
2022-07-25T04:07:59.075Z,21.75
2022-07-25T04:18:05.037Z,21.47
2022-07-25T04:28:14.375Z,21.75
2022-07-25T04:38:19.917Z,21.75
2022-07-25T04:48:26.093Z,21.47
2022-07-25T04:58:32.249Z,21.51
2022-07-25T05:08:38.012Z,21.58
2022-07-25T05:18:43.845Z,21.58
2022-07-25T05:28:49.359Z,21.78
2022-07-25T05:38:55.390Z,22.14
2022-07-25T05:49:01.136Z,21.98
2022-07-25T05:59:07.465Z,22.31
2022-07-25T06:09:13.779Z,22.59
2022-07-25T06:19:20.264Z,22.80
2022-07-25T06:29:26.306Z,22.84
2022-07-25T06:39:32.822Z,23.04
2022-07-25T06:49:39.232Z,23.14
2022-07-25T06:59:45.277Z,23.21
2022-07-25T07:09:51.411Z,23.37
2022-07-25T07:19:57.793Z,23.59
2022-07-25T07:30:04.391Z,23.84
2022-07-25T07:40:17.880Z,24.05
2022-07-25T07:50:21.719Z,24.30
2022-07-25T08:00:27.791Z,24.57
2022-07-25T08:10:33.700Z,24.84
2022-07-25T08:20:40.137Z,25.06
2022-07-25T08:30:46.737Z,25.34
2022-07-25T08:40:53.318Z,25.57
2022-07-25T08:50:59.549Z,26.03
2022-07-25T09:01:07.699Z,26.45
2022-07-25T09:11:13.998Z,26.62
2022-07-25T09:21:22.175Z,26.72
2022-07-25T09:31:28.254Z,26.89
2022-07-25T09:41:36.340Z,27.03
2022-07-25T09:51:42.901Z,27.27
2022-07-25T10:01:49.195Z,27.48
2022-07-25T10:11:55.580Z,27.80
2022-07-25T10:22:03.672Z,28.41
2022-07-25T10:32:10.124Z,30.62
2022-07-25T10:42:17.692Z,36.87
2022-07-25T10:52:26.756Z,39.75
2022-07-25T11:02:34.593Z,41.57
2022-07-25T11:12:41.412Z,41.95
2022-07-25T11:22:48.151Z,41.84
2022-07-25T11:32:54.211Z,42.06
2022-07-25T11:43:00.323Z,42.05
2022-07-25T11:53:06.132Z,41.88
2022-07-25T12:03:17.150Z,41.28
2022-07-25T12:13:23.384Z,40.79
2022-07-25T12:23:28.913Z,40.31
2022-07-25T12:33:34.599Z,39.48
2022-07-25T12:43:40.421Z,39.13
2022-07-25T12:53:46.371Z,38.71
2022-07-25T13:03:51.976Z,37.37
2022-07-25T13:13:55.586Z,32.98
2022-07-25T13:24:00.489Z,32.31
2022-07-25T13:34:05.592Z,31.30
2022-07-25T13:44:11.389Z,31.69
2022-07-25T13:54:18.264Z,31.41
2022-07-25T14:04:22.831Z,30.49
2022-07-25T14:14:28.215Z,29.84
2022-07-25T14:24:34.054Z,29.36
2022-07-25T14:34:39.711Z,28.93
2022-07-25T14:44:45.503Z,28.76
2022-07-25T14:54:51.658Z,28.69
2022-07-25T15:04:57.771Z,28.84
2022-07-25T15:15:03.732Z,28.80
2022-07-25T15:35:20.243Z,28.61
2022-07-25T15:45:32.906Z,28.41
2022-07-25T15:55:38.692Z,28.20
2022-07-25T16:05:46.253Z,28.05
2022-07-25T16:15:52.478Z,27.92
2022-07-25T16:25:58.041Z,27.73
2022-07-25T16:36:04.442Z,27.61
2022-07-25T16:46:10.675Z,27.52
2022-07-25T16:56:17.053Z,27.54
2022-07-25T17:06:24.655Z,27.54
2022-07-25T17:16:30.936Z,27.61
2022-07-25T17:26:38.140Z,27.46
2022-07-25T17:36:44.300Z,27.38
2022-07-25T17:46:52.206Z,27.31
2022-07-25T17:56:58.199Z,27.22
2022-07-25T18:07:05.530Z,27.14
2022-07-25T18:17:11.701Z,27.04
2022-07-25T18:27:19.204Z,26.95
2022-07-25T18:37:25.881Z,26.91
2022-07-25T18:47:33.833Z,26.84
2022-07-25T18:57:40.111Z,26.77
2022-07-25T19:07:47.932Z,26.63
2022-07-25T19:17:53.991Z,26.55
2022-07-25T19:28:01.791Z,26.46
2022-07-25T19:38:07.679Z,26.47
2022-07-25T19:48:16.917Z,26.38
2022-07-25T19:58:22.673Z,26.03
2022-07-25T20:08:30.637Z,26.11
2022-07-25T20:18:36.491Z,26.01
2022-07-25T20:28:44.495Z,25.82
2022-07-25T20:38:50.558Z,25.78
2022-07-25T20:48:58.555Z,25.77
2022-07-25T20:59:04.581Z,25.69
2022-07-25T21:09:12.662Z,25.69
2022-07-25T21:19:18.507Z,25.78
2022-07-25T21:29:26.505Z,25.80
2022-07-25T21:39:32.509Z,25.77
2022-07-25T21:49:41.030Z,25.72
2022-07-25T21:59:48.280Z,25.53
2022-07-25T22:09:56.258Z,25.52
2022-07-25T22:20:02.379Z,25.51
2022-07-25T22:30:14.687Z,25.53
2022-07-25T22:40:21.078Z,25.47
2022-07-25T22:50:28.775Z,25.38
2022-07-25T23:00:34.575Z,25.34
2022-07-25T23:10:42.564Z,25.32
2022-07-25T23:20:48.879Z,25.30
2022-07-25T23:30:56.253Z,25.30
2022-07-25T23:41:02.317Z,25.31
2022-07-25T23:51:10.111Z,25.07
